Main page
METAR-TAF:

METAR-TAF

Airports :

Albert – Picardie Airport

Albert, France

latitude: 49-58-21N, longitude: 002-41-29E, elevation: 111 m

Current weather observation

The report was made 22 minutes ago, at 20:30 UTC
Wind 6 kt from the North/Northwest, varying between Northwest and North
Temperature 4°C
Humidity 93%
Pressure 1037 hPa
Visibility: 7000 m
Overcast at a height of 700 ft

METAR: LFAQ 222030Z AUTO 34006KT 310V010 7000 OVC007 04/03 Q1037

Time: 21:52 (20:52 UTC)

Forecast

The report was made 6 hours and 52 minutes ago, at 14:00 UTC
Forecast valid from 22 at 15 UTC to 22 at 24 UTC
Wind 5 kt from the West/Northwest
Visibility: 8000 m
Overcast at a height of 1200 ft
Temporary
from 22 at 15 UTC to 22 at 20 UTC
Overcast at a height of 900 ft

TAF: LFAQ 221400Z 2215/2224 30005KT 8000 OVC012 TEMPO 2215/2220 OVC009

Weather observations and forecasts of more than 4000 airports (METAR and TAF reports).

The available stations are represented by yellow and red dots on the map.

Hover mouse over dot to see the name of the station.

Then click to see weather observations and forecasts.

To change the map : click on the green buttons with a black cross to zoom in, on the green button with a dash to zoom out, or on the green arrows for adjacent maps.


METAR-TAF: